sensor_id;sensor_type;location;lat;lon;timestamp;pressure;altitude;pressure_sealevel;temperature;humidity
70304;BME280;57712;48.752;11.348;2023-07-31T00:01:43;97632.41;;;14.83;100.00
70304;BME280;57712;48.752;11.348;2023-07-31T00:04:10;97636.84;;;14.80;100.00
70304;BME280;57712;48.752;11.348;2023-07-31T00:06:36;97634.84;;;14.68;100.00
70304;BME280;57712;48.752;11.348;2023-07-31T00:09:04;97642.34;;;14.80;100.00
70304;BME280;57712;48.752;11.348;2023-07-31T00:11:31;97644.75;;;14.78;100.00
70304;BME280;57712;48.752;11.348;2023-07-31T00:13:57;97636.19;;;14.63;100.00
70304;BME280;57712;48.752;11.348;2023-07-31T00:16:24;97637.16;;;14.82;100.00
70304;BME280;57712;48.752;11.348;2023-07-31T00:18:51;97631.97;;;14.84;100.00
70304;BME280;57712;48.752;11.348;2023-07-31T00:21:19;97638.78;;;14.80;100.00
70304;BME280;57712;48.752;11.348;2023-07-31T00:23:46;97637.59;;;14.68;100.00
70304;BME280;57712;48.752;11.348;2023-07-31T00:26:13;97631.97;;;14.84;100.00
70304;BME280;57712;48.752;11.348;2023-07-31T00:28:39;97623.16;;;14.64;100.00
70304;BME280;57712;48.752;11.348;2023-07-31T00:31:06;97626.25;;;14.66;100.00
70304;BME280;57712;48.752;11.348;2023-07-31T00:33:34;97622.59;;;14.69;100.00
70304;BME280;57712;48.752;11.348;2023-07-31T00:36:01;97624.69;;;14.65;100.00
70304;BME280;57712;48.752;11.348;2023-07-31T00:38:28;97625.81;;;14.55;100.00
70304;BME280;57712;48.752;11.348;2023-07-31T00:40:57;97626.38;;;14.62;100.00
70304;BME280;57712;48.752;11.348;2023-07-31T00:43:24;97622.72;;;14.65;100.00
70304;BME280;57712;48.752;11.348;2023-07-31T00:45:51;97627.47;;;14.52;100.00
70304;BME280;57712;48.752;11.348;2023-07-31T00:48:18;97623.38;;;14.57;100.00
70304;BME280;57712;48.752;11.348;2023-07-31T00:50:45;97614.56;;;14.62;100.00
70304;BME280;57712;48.752;11.348;2023-07-31T00:53:13;97618.97;;;14.47;100.00
70304;BME280;57712;48.752;11.348;2023-07-31T00:55:40;97617.88;;;14.57;100.00
70304;BME280;57712;48.752;11.348;2023-07-31T00:58:06;97626.69;;;14.52;100.00
70304;BME280;57712;48.752;11.348;2023-07-31T01:00:33;97619.97;;;14.53;100.00
70304;BME280;57712;48.752;11.348;2023-07-31T01:03:00;97612.34;;;14.57;100.00
70304;BME280;57712;48.752;11.348;2023-07-31T01:08:33;97620.50;;;14.35;100.00
70304;BME280;57712;48.752;11.348;2023-07-31T01:11:13;97623.47;;;14.40;100.00
70304;BME280;57712;48.752;11.348;2023-07-31T01:13:42;97625.47;;;14.40;100.00
70304;BME280;57712;48.752;11.348;2023-07-31T01:16:09;97622.72;;;14.40;100.00
70304;BME280;57712;48.752;11.348;2023-07-31T01:18:36;97617.28;;;14.36;100.00
70304;BME280;57712;48.752;11.348;2023-07-31T01:23:57;97612.00;;;14.42;100.00
70304;BME280;57712;48.752;11.348;2023-07-31T01:26:34;97607.47;;;14.35;100.00
70304;BME280;57712;48.752;11.348;2023-07-31T01:31:49;97598.00;;;14.24;100.00
70304;BME280;57712;48.752;11.348;2023-07-31T01:34:17;97594.25;;;14.05;100.00
70304;BME280;57712;48.752;11.348;2023-07-31T01:36:44;97590.06;;;14.13;100.00
70304;BME280;57712;48.752;11.348;2023-07-31T01:39:11;97589.75;;;13.98;100.00
70304;BME280;57712;48.752;11.348;2023-07-31T01:41:37;97600.63;;;14.02;100.00
70304;BME280;57712;48.752;11.348;2023-07-31T01:44:04;97594.16;;;14.08;100.00
70304;BME280;57712;48.752;11.348;2023-07-31T01:46:31;97590.06;;;13.88;100.00
70304;BME280;57712;48.752;11.348;2023-07-31T01:48:58;97593.03;;;13.93;100.00
70304;BME280;57712;48.752;11.348;2023-07-31T01:51:25;97596.84;;;13.70;100.00
70304;BME280;57712;48.752;11.348;2023-07-31T01:53:52;97595.56;;;13.88;100.00
70304;BME280;57712;48.752;11.348;2023-07-31T01:56:18;97597.09;;;13.89;100.00
70304;BME280;57712;48.752;11.348;2023-07-31T01:58:45;97593.00;;;13.80;100.00
70304;BME280;57712;48.752;11.348;2023-07-31T02:01:12;97589.78;;;13.69;100.00
70304;BME280;57712;48.752;11.348;2023-07-31T02:03:39;97593.94;;;13.61;100.00
70304;BME280;57712;48.752;11.348;2023-07-31T02:06:05;97591.75;;;13.56;100.00
70304;BME280;57712;48.752;11.348;2023-07-31T02:08:32;97590.88;;;13.59;100.00
70304;BME280;57712;48.752;11.348;2023-07-31T02:10:59;97584.91;;;13.48;100.00
70304;BME280;57712;48.752;11.348;2023-07-31T02:13:26;97596.84;;;13.41;100.00
70304;BME280;57712;48.752;11.348;2023-07-31T02:15:53;97582.44;;;13.37;100.00
70304;BME280;57712;48.752;11.348;2023-07-31T02:18:20;97572.19;;;13.38;100.00
70304;BME280;57712;48.752;11.348;2023-07-31T02:20:50;97576.13;;;13.24;100.00
70304;BME280;57712;48.752;11.348;2023-07-31T02:23:20;97575.34;;;13.23;100.00
70304;BME280;57712;48.752;11.348;2023-07-31T02:25:47;97576.91;;;13.24;100.00
70304;BME280;57712;48.752;11.348;2023-07-31T02:28:14;97575.03;;;13.05;100.00
70304;BME280;57712;48.752;11.348;2023-07-31T02:30:44;97571.06;;;13.06;100.00
70304;BME280;57712;48.752;11.348;2023-07-31T02:33:12;97567.53;;;13.06;100.00
70304;BME280;57712;48.752;11.348;2023-07-31T02:35:38;97564.59;;;13.13;100.00
70304;BME280;57712;48.752;11.348;2023-07-31T02:38:05;97568.47;;;13.15;100.00
70304;BME280;57712;48.752;11.348;2023-07-31T02:40:32;97569.22;;;13.16;100.00
70304;BME280;57712;48.752;11.348;2023-07-31T02:42:58;97563.25;;;13.05;100.00
70304;BME280;57712;48.752;11.348;2023-07-31T02:45:25;97565.75;;;12.99;100.00
70304;BME280;57712;48.752;11.348;2023-07-31T02:47:52;97570.19;;;13.09;100.00
70304;BME280;57712;48.752;11.348;2023-07-31T02:50:19;97564.63;;;12.96;100.00
70304;BME280;57712;48.752;11.348;2023-07-31T02:52:46;97566.06;;;13.01;100.00
70304;BME280;57712;48.752;11.348;2023-07-31T02:55:12;97564.63;;;12.96;100.00
70304;BME280;57712;48.752;11.348;2023-07-31T02:57:39;97563.88;;;12.96;100.00
70304;BME280;57712;48.752;11.348;2023-07-31T03:00:06;97558.09;;;12.90;100.00
70304;BME280;57712;48.752;11.348;2023-07-31T03:02:33;97562.06;;;12.89;100.00
70304;BME280;57712;48.752;11.348;2023-07-31T03:05:00;97558.81;;;12.94;100.00
70304;BME280;57712;48.752;11.348;2023-07-31T03:07:27;97561.28;;;12.89;100.00
70304;BME280;57712;48.752;11.348;2023-07-31T03:09:54;97565.69;;;12.86;100.00
70304;BME280;57712;48.752;11.348;2023-07-31T03:12:20;97565.78;;;12.83;100.00
70304;BME280;57712;48.752;11.348;2023-07-31T03:14:47;97563.03;;;12.83;100.00
70304;BME280;57712;48.752;11.348;2023-07-31T03:17:15;97558.38;;;12.80;100.00
70304;BME280;57712;48.752;11.348;2023-07-31T03:19:42;97559.25;;;12.77;100.00
70304;BME280;57712;48.752;11.348;2023-07-31T03:22:09;97557.38;;;12.74;100.00
70304;BME280;57712;48.752;11.348;2023-07-31T03:24:36;97546.63;;;12.79;100.00
70304;BME280;57712;48.752;11.348;2023-07-31T03:27:03;97557.03;;;12.71;100.00
70304;BME280;57712;48.752;11.348;2023-07-31T03:29:29;97561.75;;;12.71;100.00
70304;BME280;57712;48.752;11.348;2023-07-31T03:31:56;97566.97;;;12.82;100.00
70304;BME280;57712;48.752;11.348;2023-07-31T03:34:23;97563.03;;;12.83;100.00
70304;BME280;57712;48.752;11.348;2023-07-31T03:36:50;97566.47;;;12.70;100.00
70304;BME280;57712;48.752;11.348;2023-07-31T03:39:16;97556.25;;;12.71;100.00
70304;BME280;57712;48.752;11.348;2023-07-31T03:41:43;97554.47;;;12.64;100.00
70304;BME280;57712;48.752;11.348;2023-07-31T03:44:10;97564.41;;;12.58;100.00
70304;BME280;57712;48.752;11.348;2023-07-31T03:46:36;97564.75;;;12.60;100.00
70304;BME280;57712;48.752;11.348;2023-07-31T03:49:04;97568.38;;;12.57;100.00
70304;BME280;57712;48.752;11.348;2023-07-31T03:51:30;97578.16;;;12.58;100.00
70304;BME280;57712;48.752;11.348;2023-07-31T03:53:57;97573.88;;;12.57;100.00
70304;BME280;57712;48.752;11.348;2023-07-31T03:56:24;97570.44;;;12.53;100.00
70304;BME280;57712;48.752;11.348;2023-07-31T03:58:50;97568.38;;;12.57;100.00
70304;BME280;57712;48.752;11.348;2023-07-31T04:01:17;97557.75;;;12.43;100.00
70304;BME280;57712;48.752;11.348;2023-07-31T04:03:46;97571.81;;;12.45;100.00
70304;BME280;57712;48.752;11.348;2023-07-31T04:06:12;97567.63;;;12.40;100.00
70304;BME280;57712;48.752;11.348;2023-07-31T04:08:39;97573.34;;;12.46;100.00
70304;BME280;57712;48.752;11.348;2023-07-31T04:11:06;97570.59;;;12.46;100.00
70304;BME280;57712;48.752;11.348;2023-07-31T04:13:32;97578.69;;;12.53;100.00
70304;BME280;57712;48.752;11.348;2023-07-31T04:16:00;97570.44;;;12.53;100.00
70304;BME280;57712;48.752;11.348;2023-07-31T04:18:27;97566.84;;;12.56;100.00
70304;BME280;57712;48.752;11.348;2023-07-31T04:20:53;97564.41;;;12.58;100.00
70304;BME280;57712;48.752;11.348;2023-07-31T04:23:21;97563.75;;;12.54;100.00
70304;BME280;57712;48.752;11.348;2023-07-31T04:25:47;97564.59;;;12.67;100.00
70304;BME280;57712;48.752;11.348;2023-07-31T04:28:14;97564.16;;;12.69;100.00
70304;BME280;57712;48.752;11.348;2023-07-31T04:30:41;97554.63;;;12.74;100.00
70304;BME280;57712;48.752;11.348;2023-07-31T04:33:08;97551.44;;;12.75;100.00
70304;BME280;57712;48.752;11.348;2023-07-31T04:35:35;97552.88;;;12.80;100.00
70304;BME280;57712;48.752;11.348;2023-07-31T04:38:01;97554.69;;;12.86;100.00
70304;BME280;57712;48.752;11.348;2023-07-31T04:40:28;97549.47;;;12.76;100.00
70304;BME280;57712;48.752;11.348;2023-07-31T04:42:55;97555.50;;;12.99;100.00
70304;BME280;57712;48.752;11.348;2023-07-31T04:45:22;97552.59;;;13.07;100.00
70304;BME280;57712;48.752;11.348;2023-07-31T04:47:52;97553.94;;;13.15;100.00
70304;BME280;57712;48.752;11.348;2023-07-31T04:50:20;97549.50;;;13.34;100.00
70304;BME280;57712;48.752;11.348;2023-07-31T04:52:47;97558.25;;;13.45;100.00
70304;BME280;57712;48.752;11.348;2023-07-31T04:55:14;97547.16;;;13.61;100.00
70304;BME280;57712;48.752;11.348;2023-07-31T04:57:40;97535.38;;;13.73;100.00
70304;BME280;57712;48.752;11.348;2023-07-31T05:00:07;97546.00;;;13.88;100.00
70304;BME280;57712;48.752;11.348;2023-07-31T05:02:37;97547.53;;;14.01;100.00
70304;BME280;57712;48.752;11.348;2023-07-31T05:05:04;97551.94;;;14.24;100.00
70304;BME280;57712;48.752;11.348;2023-07-31T05:07:31;97555.91;;;13.98;100.00
70304;BME280;57712;48.752;11.348;2023-07-31T05:09:58;97560.44;;;14.30;100.00
70304;BME280;57712;48.752;11.348;2023-07-31T05:12:24;97564.81;;;14.27;100.00
70304;BME280;57712;48.752;11.348;2023-07-31T05:14:51;97558.78;;;14.45;100.00
70304;BME280;57712;48.752;11.348;2023-07-31T05:17:18;97559.84;;;14.73;100.00
70304;BME280;57712;48.752;11.348;2023-07-31T05:19:44;97547.69;;;14.83;100.00
70304;BME280;57712;48.752;11.348;2023-07-31T05:22:11;97547.47;;;15.12;100.00
70304;BME280;57712;48.752;11.348;2023-07-31T05:24:38;97541.56;;;15.23;100.00
70304;BME280;57712;48.752;11.348;2023-07-31T05:27:05;97535.91;;;15.48;100.00
70304;BME280;57712;48.752;11.348;2023-07-31T05:29:32;97523.25;;;15.38;100.00
70304;BME280;57712;48.752;11.348;2023-07-31T05:32:01;97530.66;;;15.94;100.00
70304;BME280;57712;48.752;11.348;2023-07-31T05:34:28;97517.34;;;16.02;100.00
70304;BME280;57712;48.752;11.348;2023-07-31T05:36:55;97516.00;;;15.75;100.00
70304;BME280;57712;48.752;11.348;2023-07-31T05:39:21;97526.66;;;15.86;100.00
70304;BME280;57712;48.752;11.348;2023-07-31T05:41:48;97527.72;;;15.88;100.00
70304;BME280;57712;48.752;11.348;2023-07-31T05:44:15;97536.59;;;16.24;100.00
70304;BME280;57712;48.752;11.348;2023-07-31T05:46:42;97527.75;;;16.38;100.00
70304;BME280;57712;48.752;11.348;2023-07-31T05:49:09;97535.03;;;16.63;100.00
70304;BME280;57712;48.752;11.348;2023-07-31T05:51:35;97533.69;;;16.95;100.00
70304;BME280;57712;48.752;11.348;2023-07-31T05:54:02;97534.00;;;16.97;100.00
70304;BME280;57712;48.752;11.348;2023-07-31T05:56:29;97528.78;;;17.26;100.00
70304;BME280;57712;48.752;11.348;2023-07-31T05:58:56;97520.78;;;16.92;100.00
70304;BME280;57712;48.752;11.348;2023-07-31T06:01:23;97522.94;;;17.34;100.00
70304;BME280;57712;48.752;11.348;2023-07-31T06:03:50;97519.56;;;17.02;100.00
70304;BME280;57712;48.752;11.348;2023-07-31T06:06:17;97517.41;;;16.88;100.00
70304;BME280;57712;48.752;11.348;2023-07-31T06:08:43;97528.19;;;17.13;100.00
70304;BME280;57712;48.752;11.348;2023-07-31T06:11:11;97515.25;;;16.92;100.00
70304;BME280;57712;48.752;11.348;2023-07-31T06:13:37;97520.94;;;17.16;100.00
70304;BME280;57712;48.752;11.348;2023-07-31T06:16:06;97515.28;;;17.01;100.00
70304;BME280;57712;48.752;11.348;2023-07-31T06:18:33;97519.72;;;16.89;100.00
70304;BME280;57712;48.752;11.348;2023-07-31T06:20:59;97514.34;;;17.13;100.00
70304;BME280;57712;48.752;11.348;2023-07-31T06:23:26;97510.34;;;17.14;100.00
70304;BME280;57712;48.752;11.348;2023-07-31T06:25:53;97510.63;;;17.07;100.00
70304;BME280;57712;48.752;11.348;2023-07-31T06:28:20;97504.19;;;16.83;100.00
70304;BME280;57712;48.752;11.348;2023-07-31T06:30:46;97510.03;;;17.12;100.00
70304;BME280;57712;48.752;11.348;2023-07-31T06:33:13;97507.53;;;17.42;100.00
70304;BME280;57712;48.752;11.348;2023-07-31T06:35:40;97506.03;;;17.04;100.00
70304;BME280;57712;48.752;11.348;2023-07-31T06:38:07;97511.41;;;17.08;100.00
70304;BME280;57712;48.752;11.348;2023-07-31T06:40:34;97514.31;;;17.31;100.00
70304;BME280;57712;48.752;11.348;2023-07-31T06:43:00;97517.72;;;17.08;100.00
70304;BME280;57712;48.752;11.348;2023-07-31T06:45:35;97510.94;;;17.27;100.00
70304;BME280;57712;48.752;11.348;2023-07-31T06:48:02;97510.72;;;17.58;100.00
70304;BME280;57712;48.752;11.348;2023-07-31T06:50:29;97507.16;;;17.67;100.00
70304;BME280;57712;48.752;11.348;2023-07-31T06:52:57;97509.25;;;17.91;100.00
70304;BME280;57712;48.752;11.348;2023-07-31T06:55:24;97511.13;;;17.94;100.00
70304;BME280;57712;48.752;11.348;2023-07-31T06:57:52;97508.78;;;17.31;100.00
70304;BME280;57712;48.752;11.348;2023-07-31T07:00:21;97507.03;;;17.71;100.00
70304;BME280;57712;48.752;11.348;2023-07-31T07:02:48;97516.25;;;17.77;100.00
70304;BME280;57712;48.752;11.348;2023-07-31T07:05:18;97521.97;;;17.55;100.00
70304;BME280;57712;48.752;11.348;2023-07-31T07:07:45;97519.88;;;17.31;100.00
70304;BME280;57712;48.752;11.348;2023-07-31T07:10:12;97516.41;;;17.64;100.00
70304;BME280;57712;48.752;11.348;2023-07-31T07:12:38;97521.81;;;17.40;100.00
70304;BME280;57712;48.752;11.348;2023-07-31T07:15:06;97518.22;;;17.85;100.00
70304;BME280;57712;48.752;11.348;2023-07-31T07:17:32;97497.38;;;17.99;100.00
70304;BME280;57712;48.752;11.348;2023-07-31T07:20:00;97497.81;;;18.07;100.00
70304;BME280;57712;48.752;11.348;2023-07-31T07:22:27;97491.78;;;18.08;100.00
70304;BME280;57712;48.752;11.348;2023-07-31T07:24:54;97495.50;;;17.72;100.00
70304;BME280;57712;48.752;11.348;2023-07-31T07:27:22;97506.47;;;18.00;100.00
70304;BME280;57712;48.752;11.348;2023-07-31T07:29:52;97502.63;;;18.30;100.00
70304;BME280;57712;48.752;11.348;2023-07-31T07:32:20;97495.63;;;18.11;100.00
70304;BME280;57712;48.752;11.348;2023-07-31T07:34:48;97485.34;;;18.59;100.00
70304;BME280;57712;48.752;11.348;2023-07-31T07:37:15;97493.44;;;18.72;100.00
70304;BME280;57712;48.752;11.348;2023-07-31T07:39:42;97496.94;;;18.82;100.00
70304;BME280;57712;48.752;11.348;2023-07-31T07:42:09;97486.66;;;19.12;100.00
70304;BME280;57712;48.752;11.348;2023-07-31T07:44:36;97486.28;;;19.19;100.00
70304;BME280;57712;48.752;11.348;2023-07-31T07:47:04;97485.34;;;19.51;100.00
70304;BME280;57712;48.752;11.348;2023-07-31T07:49:33;97481.34;;;19.82;100.00
70304;BME280;57712;48.752;11.348;2023-07-31T07:52:01;97487.25;;;20.04;100.00
70304;BME280;57712;48.752;11.348;2023-07-31T07:54:28;97495.78;;;20.36;100.00
70304;BME280;57712;48.752;11.348;2023-07-31T07:56:55;97492.84;;;20.25;100.00
70304;BME280;57712;48.752;11.348;2023-07-31T07:59:22;97486.31;;;20.28;100.00
70304;BME280;57712;48.752;11.348;2023-07-31T08:01:48;97490.69;;;20.69;100.00
70304;BME280;57712;48.752;11.348;2023-07-31T08:04:15;97486.94;;;20.72;100.00
70304;BME280;57712;48.752;11.348;2023-07-31T08:06:42;97479.16;;;20.77;100.00
70304;BME280;57712;48.752;11.348;2023-07-31T08:09:08;97484.00;;;20.61;100.00
70304;BME280;57712;48.752;11.348;2023-07-31T08:11:35;97482.59;;;20.92;100.00
70304;BME280;57712;48.752;11.348;2023-07-31T08:14:02;97484.56;;;20.45;100.00
70304;BME280;57712;48.752;11.348;2023-07-31T08:16:29;97487.00;;;20.23;100.00
70304;BME280;57712;48.752;11.348;2023-07-31T08:18:56;97491.69;;;19.81;100.00
70304;BME280;57712;48.752;11.348;2023-07-31T08:21:23;97481.16;;;20.21;100.00
70304;BME280;57712;48.752;11.348;2023-07-31T08:23:49;97489.44;;;20.50;100.00
70304;BME280;57712;48.752;11.348;2023-07-31T08:26:20;97491.94;;;20.48;100.00
70304;BME280;57712;48.752;11.348;2023-07-31T08:28:47;97493.63;;;20.10;100.00
70304;BME280;57712;48.752;11.348;2023-07-31T08:31:14;97483.72;;;21.00;100.00
70304;BME280;57712;48.752;11.348;2023-07-31T08:33:41;97490.47;;;20.73;100.00
70304;BME280;57712;48.752;11.348;2023-07-31T08:36:07;97491.44;;;20.90;100.00
70304;BME280;57712;48.752;11.348;2023-07-31T08:38:34;97487.03;;;21.04;100.00
70304;BME280;57712;48.752;11.348;2023-07-31T08:41:03;97480.31;;;20.70;100.00
70304;BME280;57712;48.752;11.348;2023-07-31T08:43:30;97484.34;;;20.69;100.00
70304;BME280;57712;48.752;11.348;2023-07-31T08:45:57;97481.78;;;20.86;100.00
70304;BME280;57712;48.752;11.348;2023-07-31T08:48:25;97487.22;;;20.74;100.00
70304;BME280;57712;48.752;11.348;2023-07-31T08:50:52;97478.81;;;20.34;100.00
70304;BME280;57712;48.752;11.348;2023-07-31T08:53:19;97479.19;;;20.06;100.00
70304;BME280;57712;48.752;11.348;2023-07-31T08:55:48;97477.66;;;20.05;100.00
70304;BME280;57712;48.752;11.348;2023-07-31T08:58:15;97477.50;;;19.79;100.00
70304;BME280;57712;48.752;11.348;2023-07-31T09:00:42;97480.97;;;19.59;100.00
70304;BME280;57712;48.752;11.348;2023-07-31T09:03:15;97477.47;;;19.94;100.00
70304;BME280;57712;48.752;11.348;2023-07-31T09:05:44;97471.34;;;19.90;100.00
70304;BME280;57712;48.752;11.348;2023-07-31T09:08:12;97467.97;;;20.36;100.00
70304;BME280;57712;48.752;11.348;2023-07-31T09:10:41;97468.41;;;20.69;100.00
70304;BME280;57712;48.752;11.348;2023-07-31T09:13:09;97464.75;;;20.23;100.00
70304;BME280;57712;48.752;11.348;2023-07-31T09:15:39;97458.75;;;20.44;100.00
70304;BME280;57712;48.752;11.348;2023-07-31T09:18:07;97457.56;;;20.51;100.00
70304;BME280;57712;48.752;11.348;2023-07-31T09:20:35;97453.34;;;20.41;100.00
70304;BME280;57712;48.752;11.348;2023-07-31T09:23:10;97457.25;;;20.29;100.00
70304;BME280;57712;48.752;11.348;2023-07-31T09:25:38;97455.06;;;20.53;100.00
70304;BME280;57712;48.752;11.348;2023-07-31T09:28:10;97450.56;;;20.41;100.00
70304;BME280;57712;48.752;11.348;2023-07-31T09:30:49;97440.53;;;21.10;100.00
70304;BME280;57712;48.752;11.348;2023-07-31T09:33:18;97432.22;;;21.16;100.00
70304;BME280;57712;48.752;11.348;2023-07-31T09:35:46;97428.13;;;20.85;100.00
70304;BME280;57712;48.752;11.348;2023-07-31T09:38:15;97422.78;;;21.08;100.00
70304;BME280;57712;48.752;11.348;2023-07-31T09:40:47;97420.53;;;21.12;100.00
70304;BME280;57712;48.752;11.348;2023-07-31T09:43:20;97424.22;;;21.55;100.00
70304;BME280;57712;48.752;11.348;2023-07-31T09:45:47;97420.44;;;21.89;100.00
70304;BME280;57712;48.752;11.348;2023-07-31T09:48:18;97419.03;;;21.37;100.00
70304;BME280;57712;48.752;11.348;2023-07-31T09:50:48;97408.19;;;21.18;100.00
70304;BME280;57712;48.752;11.348;2023-07-31T09:53:16;97406.78;;;21.28;100.00
70304;BME280;57712;48.752;11.348;2023-07-31T09:55:43;97400.69;;;21.99;100.00
70304;BME280;57712;48.752;11.348;2023-07-31T09:58:11;97413.03;;;21.81;100.00
70304;BME280;57712;48.752;11.348;2023-07-31T10:00:39;97402.06;;;21.72;100.00
70304;BME280;57712;48.752;11.348;2023-07-31T10:03:08;97394.63;;;22.00;100.00
70304;BME280;57712;48.752;11.348;2023-07-31T10:05:40;97398.03;;;21.41;100.00
70304;BME280;57712;48.752;11.348;2023-07-31T10:08:09;97389.16;;;21.74;100.00
70304;BME280;57712;48.752;11.348;2023-07-31T10:10:45;97394.81;;;22.28;100.00
70304;BME280;57712;48.752;11.348;2023-07-31T10:13:13;97398.47;;;22.57;99.47
70304;BME280;57712;48.752;11.348;2023-07-31T10:15:40;97383.47;;;22.48;96.84
70304;BME280;57712;48.752;11.348;2023-07-31T10:18:08;97390.69;;;22.18;98.11
70304;BME280;57712;48.752;11.348;2023-07-31T10:20:36;97388.75;;;22.35;99.70
70304;BME280;57712;48.752;11.348;2023-07-31T10:23:03;97382.78;;;22.70;95.72
70304;BME280;57712;48.752;11.348;2023-07-31T10:25:30;97380.75;;;22.71;97.48
70304;BME280;57712;48.752;11.348;2023-07-31T10:27:59;97377.19;;;22.65;98.18
70304;BME280;57712;48.752;11.348;2023-07-31T10:30:28;97369.69;;;23.10;99.02
70304;BME280;57712;48.752;11.348;2023-07-31T10:32:56;97375.09;;;22.48;91.48
70304;BME280;57712;48.752;11.348;2023-07-31T10:35:24;97364.72;;;22.60;93.87
70304;BME280;57712;48.752;11.348;2023-07-31T10:37:52;97368.91;;;22.22;94.57
70304;BME280;57712;48.752;11.348;2023-07-31T10:40:24;97352.38;;;23.00;93.29
70304;BME280;57712;48.752;11.348;2023-07-31T10:42:57;97350.72;;;22.43;93.13
70304;BME280;57712;48.752;11.348;2023-07-31T10:48:04;97345.53;;;23.18;91.00
70304;BME280;57712;48.752;11.348;2023-07-31T10:50:37;97345.16;;;22.55;90.09
70304;BME280;57712;48.752;11.348;2023-07-31T10:53:04;97334.09;;;23.33;95.03
70304;BME280;57712;48.752;11.348;2023-07-31T10:55:33;97346.31;;;23.19;91.94
70304;BME280;57712;48.752;11.348;2023-07-31T10:58:09;97357.41;;;22.74;89.51
70304;BME280;57712;48.752;11.348;2023-07-31T11:00:43;97339.44;;;23.09;90.21
70304;BME280;57712;48.752;11.348;2023-07-31T11:03:11;97336.59;;;22.75;85.48
70304;BME280;57712;48.752;11.348;2023-07-31T11:06:01;97320.91;;;23.17;94.11
70304;BME280;57712;48.752;11.348;2023-07-31T11:08:32;97304.81;;;22.61;91.19
70304;BME280;57712;48.752;11.348;2023-07-31T11:13:33;97313.97;;;22.62;98.32
70304;BME280;57712;48.752;11.348;2023-07-31T11:16:00;97299.22;;;22.61;97.94
70304;BME280;57712;48.752;11.348;2023-07-31T11:18:27;97303.53;;;22.45;94.03
70304;BME280;57712;48.752;11.348;2023-07-31T11:20:54;97292.59;;;22.47;95.39
70304;BME280;57712;48.752;11.348;2023-07-31T11:23:22;97291.44;;;23.04;91.96
70304;BME280;57712;48.752;11.348;2023-07-31T11:25:50;97291.34;;;23.83;86.87
70304;BME280;57712;48.752;11.348;2023-07-31T11:28:18;97297.78;;;23.27;92.82
70304;BME280;57712;48.752;11.348;2023-07-31T11:30:46;97295.66;;;23.84;87.79
70304;BME280;57712;48.752;11.348;2023-07-31T11:33:13;97286.28;;;23.53;90.86
70304;BME280;57712;48.752;11.348;2023-07-31T11:35:44;97284.94;;;23.99;87.92
70304;BME280;57712;48.752;11.348;2023-07-31T11:38:21;97282.75;;;22.80;90.23
70304;BME280;57712;48.752;11.348;2023-07-31T11:40:49;97270.81;;;23.41;87.57
70304;BME280;57712;48.752;11.348;2023-07-31T11:43:17;97273.63;;;24.16;88.80
70304;BME280;57712;48.752;11.348;2023-07-31T11:45:47;97277.16;;;23.47;82.20
70304;BME280;57712;48.752;11.348;2023-07-31T11:48:22;97273.25;;;23.84;81.23
70304;BME280;57712;48.752;11.348;2023-07-31T11:50:50;97254.03;;;24.22;89.77
70304;BME280;57712;48.752;11.348;2023-07-31T11:53:22;97264.44;;;23.57;79.12
70304;BME280;57712;48.752;11.348;2023-07-31T11:55:50;97257.59;;;24.16;78.92
70304;BME280;57712;48.752;11.348;2023-07-31T11:58:17;97252.03;;;24.58;84.63
70304;BME280;57712;48.752;11.348;2023-07-31T12:00:45;97254.41;;;24.48;81.69
70304;BME280;57712;48.752;11.348;2023-07-31T12:03:12;97256.19;;;23.93;79.30
70304;BME280;57712;48.752;11.348;2023-07-31T12:05:39;97259.88;;;23.43;89.66
70304;BME280;57712;48.752;11.348;2023-07-31T12:08:11;97261.31;;;23.89;90.50
70304;BME280;57712;48.752;11.348;2023-07-31T12:10:40;97252.31;;;24.07;85.83
70304;BME280;57712;48.752;11.348;2023-07-31T12:13:24;97254.72;;;23.81;83.34
70304;BME280;57712;48.752;11.348;2023-07-31T12:15:56;97257.31;;;23.56;86.66
70304;BME280;57712;48.752;11.348;2023-07-31T12:18:27;97259.22;;;23.95;85.58
70304;BME280;57712;48.752;11.348;2023-07-31T12:21:00;97258.78;;;23.80;84.82
70304;BME280;57712;48.752;11.348;2023-07-31T12:23:28;97258.63;;;23.33;82.09
70304;BME280;57712;48.752;11.348;2023-07-31T12:26:23;97256.31;;;23.59;88.78
70304;BME280;57712;48.752;11.348;2023-07-31T12:28:54;97251.09;;;24.50;84.48
70304;BME280;57712;48.752;11.348;2023-07-31T12:31:22;97242.22;;;24.81;77.43
70304;BME280;57712;48.752;11.348;2023-07-31T12:33:50;97241.31;;;24.21;76.48
70304;BME280;57712;48.752;11.348;2023-07-31T12:36:20;97234.25;;;24.91;78.38
70304;BME280;57712;48.752;11.348;2023-07-31T12:38:48;97218.88;;;25.52;73.75
70304;BME280;57712;48.752;11.348;2023-07-31T12:41:15;97233.34;;;24.36;77.44
70304;BME280;57712;48.752;11.348;2023-07-31T12:43:44;97209.72;;;24.26;82.31
70304;BME280;57712;48.752;11.348;2023-07-31T12:46:11;97216.19;;;25.16;80.40
70304;BME280;57712;48.752;11.348;2023-07-31T12:48:40;97210.09;;;24.52;80.16
70304;BME280;57712;48.752;11.348;2023-07-31T12:51:07;97202.69;;;24.85;81.68
70304;BME280;57712;48.752;11.348;2023-07-31T12:53:34;97208.31;;;24.02;82.45
70304;BME280;57712;48.752;11.348;2023-07-31T12:56:01;97206.47;;;23.64;83.23
70304;BME280;57712;48.752;11.348;2023-07-31T12:58:28;97203.66;;;23.58;85.94
70304;BME280;57712;48.752;11.348;2023-07-31T13:00:55;97192.19;;;23.73;88.81